createdAt,value
2019-04-22T00:00:45.360Z,10.45
2019-04-22T00:03:19.945Z,10.50
2019-04-22T00:06:06.731Z,10.52
2019-04-22T00:08:44.573Z,10.53
2019-04-22T00:11:23.961Z,10.53
2019-04-22T00:13:51.974Z,10.46
2019-04-22T00:16:27.567Z,10.38
2019-04-22T00:21:25.764Z,10.23
2019-04-22T00:23:57.943Z,10.15
2019-04-22T00:26:29.309Z,10.09
2019-04-22T00:29:21.280Z,10.05
2019-04-22T00:32:00.271Z,9.97
2019-04-22T00:34:29.890Z,9.97
2019-04-22T00:37:02.867Z,9.91
2019-04-22T00:39:42.599Z,9.90
2019-04-22T00:42:08.115Z,9.87
2019-04-22T00:44:46.968Z,9.86
2019-04-22T00:47:21.738Z,9.88
2019-04-22T00:50:13.140Z,9.90
2019-04-22T00:52:16.629Z,9.91
2019-04-22T00:54:54.426Z,9.87
2019-04-22T00:57:26.889Z,9.83
2019-04-22T00:59:54.911Z,9.84
2019-04-22T01:02:27.186Z,9.84
2019-04-22T01:05:17.001Z,9.85
2019-04-22T01:07:23.702Z,9.89
2019-04-22T01:12:34.331Z,9.94
2019-04-22T01:15:09.488Z,9.99
2019-04-22T01:17:43.438Z,10.01
2019-04-22T01:20:24.500Z,9.97
2019-04-22T01:22:33.024Z,9.97
2019-04-22T01:25:08.092Z,9.93
2019-04-22T01:27:37.824Z,9.90
2019-04-22T01:30:03.646Z,9.84
2019-04-22T01:32:30.652Z,9.83
2019-04-22T01:35:11.111Z,9.77
2019-04-22T01:37:45.537Z,9.69
2019-04-22T01:40:29.379Z,9.70
2019-04-22T01:43:03.797Z,9.65
2019-04-22T01:45:35.668Z,9.60
2019-04-22T01:48:02.902Z,9.54
2019-04-22T01:50:30.637Z,9.54
2019-04-22T01:53:05.995Z,9.50
2019-04-22T01:55:38.859Z,9.51
2019-04-22T01:58:08.999Z,9.53
2019-04-22T02:00:39.883Z,9.52
2019-04-22T02:03:12.266Z,9.52
2019-04-22T02:05:42.585Z,9.51
2019-04-22T02:08:26.811Z,9.51
2019-04-22T02:10:54.601Z,9.46
2019-04-22T02:13:21.952Z,9.46
2019-04-22T02:15:52.447Z,9.46
2019-04-22T02:18:23.024Z,9.46
2019-04-22T02:20:55.289Z,9.45
2019-04-22T02:28:49.077Z,9.31
2019-04-22T02:36:22.666Z,9.15
2019-04-22T02:41:26.374Z,9.07
2019-04-22T02:44:04.052Z,9.04
2019-04-22T02:49:04.195Z,9.00
2019-04-22T02:54:27.108Z,8.93
2019-04-22T02:59:14.368Z,8.85
2019-04-22T03:04:35.576Z,8.86
2019-04-22T03:09:14.457Z,8.91
2019-04-22T03:11:45.817Z,8.93
2019-04-22T03:19:35.948Z,8.88
2019-04-22T03:27:08.024Z,8.91
2019-04-22T03:35:30.335Z,8.91
2019-04-22T03:37:48.832Z,8.95
2019-04-22T03:40:19.586Z,8.96
2019-04-22T03:45:27.880Z,8.96
2019-04-22T03:47:53.792Z,8.97
2019-04-22T03:50:25.866Z,8.93
2019-04-22T03:52:56.515Z,8.75
2019-04-22T03:57:53.891Z,8.82
2019-04-22T04:00:35.596Z,8.79
2019-04-22T04:03:00.888Z,8.75
2019-04-22T04:08:19.634Z,8.66
2019-04-22T04:10:40.231Z,8.65
2019-04-22T04:13:08.354Z,8.67
2019-04-22T04:15:53.487Z,8.70
2019-04-22T04:18:37.358Z,8.72
2019-04-22T04:20:56.403Z,8.72
2019-04-22T04:23:38.354Z,8.68
2019-04-22T04:25:47.568Z,8.63
2019-04-22T04:30:52.887Z,8.58
2019-04-22T04:33:23.016Z,8.57
2019-04-22T04:36:01.092Z,8.56
2019-04-22T04:38:32.254Z,8.53
2019-04-22T04:40:58.005Z,8.51
2019-04-22T04:43:41.494Z,8.54
2019-04-22T04:46:10.118Z,8.58
2019-04-22T04:48:42.336Z,8.65
2019-04-22T04:53:33.687Z,8.77
2019-04-22T04:56:33.976Z,8.83
2019-04-22T04:59:09.861Z,8.87
2019-04-22T05:01:23.430Z,8.89
2019-04-22T05:03:56.846Z,8.87
2019-04-22T05:06:22.233Z,8.94
2019-04-22T05:11:33.213Z,9.04
2019-04-22T05:13:57.390Z,9.08
2019-04-22T05:16:34.460Z,9.11
2019-04-22T05:24:02.393Z,9.26
2019-04-22T05:29:03.796Z,9.34
2019-04-22T05:31:35.517Z,9.38
2019-04-22T05:34:04.546Z,9.43
2019-04-22T05:36:38.441Z,9.51
2019-04-22T05:39:06.216Z,9.55
2019-04-22T05:41:35.307Z,9.65
2019-04-22T05:44:08.602Z,9.71
2019-04-22T05:46:39.590Z,9.76
2019-04-22T05:49:18.234Z,9.80
2019-04-22T05:51:42.022Z,9.85
2019-04-22T05:57:04.017Z,9.98
2019-04-22T05:59:19.027Z,10.05
2019-04-22T06:04:25.726Z,10.21
2019-04-22T06:06:54.211Z,10.27
2019-04-22T06:09:30.607Z,10.34
2019-04-22T06:11:54.306Z,10.44
2019-04-22T06:14:31.351Z,10.54
2019-04-22T06:17:08.277Z,10.64
2019-04-22T06:19:38.217Z,10.75
2019-04-22T06:22:12.839Z,10.86
2019-04-22T06:24:43.457Z,10.92
2019-04-22T06:27:18.238Z,11.05
2019-04-22T06:29:41.308Z,11.13
2019-04-22T06:34:48.706Z,11.28
2019-04-22T06:37:26.118Z,11.39
2019-04-22T06:39:53.738Z,11.51
2019-04-22T06:42:28.764Z,11.69
2019-04-22T06:44:58.172Z,11.85
2019-04-22T06:49:59.187Z,12.17
2019-04-22T06:52:36.113Z,12.29
2019-04-22T06:57:38.936Z,12.56
2019-04-22T07:00:13.714Z,12.67
2019-04-22T07:03:07.862Z,12.78
2019-04-22T07:05:10.419Z,12.97
2019-04-22T07:07:39.997Z,13.13
2019-04-22T07:10:23.616Z,13.29
2019-04-22T07:13:01.502Z,13.31
2019-04-22T07:15:36.977Z,13.57
2019-04-22T07:20:24.172Z,13.78
2019-04-22T07:22:51.351Z,13.90
2019-04-22T07:25:23.580Z,14.06
2019-04-22T07:27:58.187Z,14.20
2019-04-22T07:30:26.925Z,14.27
2019-04-22T07:35:42.188Z,14.42
2019-04-22T07:38:13.241Z,14.54
2019-04-22T07:40:38.743Z,14.67
2019-04-22T07:43:14.900Z,14.78
2019-04-22T07:45:44.287Z,14.95
2019-04-22T07:48:19.034Z,15.10
2019-04-22T07:50:56.290Z,15.12
2019-04-22T07:53:13.280Z,15.22
2019-04-22T07:55:47.274Z,15.32
2019-04-22T07:58:27.448Z,15.48
2019-04-22T08:00:55.263Z,15.57
2019-04-22T08:03:29.095Z,15.65
2019-04-22T08:06:08.717Z,15.79
2019-04-22T08:08:34.022Z,15.94
2019-04-22T08:11:10.553Z,16.00
2019-04-22T08:13:34.169Z,16.05
2019-04-22T08:16:17.205Z,16.14
2019-04-22T08:18:54.976Z,16.27
2019-04-22T08:21:23.687Z,16.43
2019-04-22T08:24:38.775Z,16.56
2019-04-22T08:26:56.472Z,16.56
2019-04-22T08:29:32.218Z,16.63
2019-04-22T08:32:01.315Z,16.68
2019-04-22T08:34:29.894Z,16.74
2019-04-22T08:37:35.432Z,16.88
2019-04-22T08:39:38.651Z,16.93
2019-04-22T08:42:09.925Z,17.07
2019-04-22T08:44:56.767Z,17.23
2019-04-22T08:47:21.822Z,17.26
2019-04-22T08:50:02.466Z,17.34
2019-04-22T08:52:27.419Z,17.48
2019-04-22T08:57:55.564Z,17.63
2019-04-22T09:00:05.391Z,17.68
2019-04-22T09:02:41.340Z,17.72
2019-04-22T09:05:20.547Z,17.78
2019-04-22T09:07:38.127Z,17.83
2019-04-22T09:10:17.182Z,17.88
2019-04-22T09:12:57.887Z,18.02
2019-04-22T09:15:26.453Z,18.14
2019-04-22T09:17:58.688Z,18.07
2019-04-22T09:20:28.639Z,18.14
2019-04-22T09:23:02.705Z,18.22
2019-04-22T09:25:29.769Z,18.28
2019-04-22T09:28:01.907Z,18.41
2019-04-22T09:30:41.579Z,18.54
2019-04-22T09:33:14.052Z,18.62
2019-04-22T09:35:44.998Z,18.71
2019-04-22T09:38:26.770Z,18.83
2019-04-22T09:43:16.864Z,18.98
2019-04-22T09:45:47.740Z,19.08
2019-04-22T09:48:23.703Z,19.22
2019-04-22T09:51:11.545Z,19.28
2019-04-22T09:53:22.550Z,19.36
2019-04-22T09:55:56.728Z,19.50
2019-04-22T09:58:31.692Z,19.63
2019-04-22T10:01:29.685Z,19.65
2019-04-22T10:14:12.349Z,19.66
2019-04-22T10:16:50.176Z,19.75
2019-04-22T10:19:18.315Z,19.83
2019-04-22T10:24:36.921Z,20.02
2019-04-22T10:26:50.595Z,20.04
2019-04-22T10:29:24.424Z,20.06
2019-04-22T10:31:57.528Z,20.10
2019-04-22T10:34:14.138Z,20.19
2019-04-22T10:36:35.420Z,20.08
2019-04-22T10:39:06.810Z,20.42
2019-04-22T10:41:36.918Z,20.55
2019-04-22T10:44:08.686Z,20.58
2019-04-22T10:46:40.206Z,20.58
2019-04-22T10:49:10.522Z,20.67
2019-04-22T10:51:40.816Z,20.69
2019-04-22T10:54:11.474Z,20.70
2019-04-22T10:56:41.538Z,20.80
2019-04-22T10:59:11.682Z,20.90
2019-04-22T11:01:42.343Z,20.96
2019-04-22T11:04:13.297Z,21.01
2019-04-22T11:06:52.082Z,20.98
2019-04-22T11:09:16.312Z,21.10
2019-04-22T11:11:56.614Z,21.23
2019-04-22T11:14:19.053Z,21.24
2019-04-22T11:16:49.747Z,21.28
2019-04-22T11:19:21.358Z,21.31
2019-04-22T11:22:05.079Z,21.40
2019-04-22T11:24:23.699Z,21.45
2019-04-22T11:26:54.939Z,21.46
2019-04-22T11:29:25.685Z,21.57
2019-04-22T11:31:56.634Z,21.64
2019-04-22T11:34:26.956Z,21.66
2019-04-22T11:36:57.110Z,21.63
2019-04-22T11:39:30.786Z,21.71
2019-04-22T11:42:00.301Z,21.76
2019-04-22T11:44:30.898Z,21.84
2019-04-22T11:47:01.532Z,21.84
2019-04-22T11:49:32.038Z,21.86
2019-04-22T11:52:04.926Z,21.82
2019-04-22T11:54:34.704Z,21.83
2019-04-22T11:57:05.454Z,21.85
2019-04-22T11:59:36.488Z,21.86
2019-04-22T12:02:06.838Z,21.96
2019-04-22T12:04:38.000Z,21.97
2019-04-22T12:07:08.780Z,22.03
2019-04-22T12:09:39.569Z,22.02
2019-04-22T12:12:09.796Z,22.07
2019-04-22T12:14:40.190Z,22.12
2019-04-22T12:17:11.328Z,22.24
2019-04-22T12:19:42.066Z,22.26
2019-04-22T12:22:13.308Z,22.21
2019-04-22T12:24:43.837Z,22.20
2019-04-22T12:27:18.348Z,22.19
2019-04-22T12:29:47.074Z,22.25
2019-04-22T12:32:17.779Z,22.42
2019-04-22T12:34:49.318Z,22.55
2019-04-22T12:37:27.445Z,22.60
2019-04-22T12:39:55.957Z,22.70
2019-04-22T12:42:23.633Z,22.66
2019-04-22T12:44:54.181Z,22.64
2019-04-22T12:47:24.427Z,22.71
2019-04-22T12:50:06.850Z,22.63
2019-04-22T12:52:33.921Z,22.60
2019-04-22T12:54:58.302Z,22.67
2019-04-22T12:57:28.469Z,22.69
2019-04-22T12:59:59.567Z,22.74
2019-04-22T13:02:31.221Z,22.73
2019-04-22T13:05:01.506Z,22.84
2019-04-22T13:07:31.933Z,22.97
2019-04-22T13:10:02.083Z,23.01
2019-04-22T13:12:33.046Z,23.02
2019-04-22T13:15:05.966Z,23.08
2019-04-22T13:17:35.756Z,23.08
2019-04-22T13:20:07.980Z,23.05
2019-04-22T13:22:40.899Z,23.05
2019-04-22T13:25:12.514Z,23.06
2019-04-22T13:27:42.910Z,23.19
2019-04-22T13:30:14.477Z,23.35
2019-04-22T13:32:44.913Z,23.42
2019-04-22T13:35:18.499Z,23.42
2019-04-22T13:37:48.778Z,23.42
2019-04-22T13:40:19.287Z,23.57
2019-04-22T13:42:53.546Z,23.68
2019-04-22T13:45:24.220Z,23.88
2019-04-22T13:48:11.562Z,23.85
2019-04-22T13:51:01.339Z,23.95
2019-04-22T13:55:56.884Z,24.28
2019-04-22T13:58:18.404Z,24.29
2019-04-22T14:00:36.660Z,24.38
2019-04-22T14:03:39.311Z,24.46
2019-04-22T14:06:10.881Z,24.55
2019-04-22T14:08:41.099Z,24.55
2019-04-22T14:11:25.310Z,24.53
2019-04-22T14:13:43.876Z,24.49
2019-04-22T14:16:15.329Z,24.59
2019-04-22T14:18:46.102Z,24.68
2019-04-22T14:21:16.911Z,24.86
2019-04-22T14:23:48.432Z,25.23
2019-04-22T14:26:19.693Z,25.45
2019-04-22T14:28:50.127Z,25.70
2019-04-22T14:31:20.468Z,25.98
2019-04-22T14:33:55.171Z,26.36
2019-04-22T14:36:23.420Z,26.73
2019-04-22T14:38:54.386Z,26.73
2019-04-22T14:41:46.711Z,26.99
2019-04-22T14:44:56.440Z,27.06
2019-04-22T14:46:59.704Z,27.04
2019-04-22T14:49:24.074Z,27.18
2019-04-22T14:52:02.055Z,27.29
2019-04-22T14:54:25.574Z,27.46
2019-04-22T14:56:38.271Z,27.50
2019-04-22T14:59:11.594Z,27.59
2019-04-22T15:01:41.717Z,27.35
2019-04-22T15:04:13.333Z,26.91
2019-04-22T15:06:47.053Z,26.79
2019-04-22T15:09:16.229Z,26.84
2019-04-22T15:11:58.222Z,27.09
2019-04-22T15:14:19.422Z,26.96
2019-04-22T15:17:05.086Z,27.16
2019-04-22T15:19:43.578Z,27.41
2019-04-22T15:22:14.609Z,27.28
2019-04-22T15:24:46.971Z,27.05
2019-04-22T15:27:18.396Z,27.17
2019-04-22T15:29:49.412Z,27.22
2019-04-22T15:32:21.113Z,27.33
2019-04-22T15:34:51.439Z,27.22
2019-04-22T15:37:22.292Z,27.23
2019-04-22T15:39:56.310Z,27.24
2019-04-22T15:42:31.821Z,26.77
2019-04-22T15:44:57.978Z,26.66
2019-04-22T15:47:29.259Z,26.75
2019-04-22T15:50:00.273Z,26.47
2019-04-22T15:52:36.599Z,26.20
2019-04-22T15:55:02.919Z,26.06
2019-04-22T15:57:36.494Z,25.88
2019-04-22T16:00:19.927Z,25.80
2019-04-22T16:02:37.526Z,25.77
2019-04-22T16:05:08.782Z,25.69
2019-04-22T16:07:42.096Z,25.46
2019-04-22T16:10:12.477Z,25.24
2019-04-22T16:12:52.979Z,24.96
2019-04-22T16:15:16.105Z,24.51
2019-04-22T16:17:46.737Z,24.31
2019-04-22T16:20:17.429Z,24.06
2019-04-22T16:23:13.120Z,23.82
2019-04-22T16:25:49.621Z,23.59
2019-04-22T16:28:19.806Z,23.30
2019-04-22T16:30:51.098Z,23.20
2019-04-22T16:33:21.710Z,23.08
2019-04-22T16:35:53.130Z,22.92
2019-04-22T16:38:24.753Z,22.79
2019-04-22T16:40:55.118Z,22.64
2019-04-22T16:43:26.520Z,22.51
2019-04-22T16:45:57.980Z,22.42
2019-04-22T16:48:29.669Z,22.33
2019-04-22T16:51:00.308Z,22.26
2019-04-22T16:53:31.483Z,22.19
2019-04-22T16:56:02.747Z,22.09
2019-04-22T16:58:34.669Z,21.94
2019-04-22T17:01:07.267Z,21.77
2019-04-22T17:03:56.518Z,21.58
2019-04-22T17:06:33.546Z,21.40
2019-04-22T17:09:06.600Z,21.24
2019-04-22T17:11:38.166Z,21.10
2019-04-22T17:14:09.191Z,20.98
2019-04-22T17:16:39.620Z,20.80
2019-04-22T17:19:11.171Z,20.71
2019-04-22T17:21:41.538Z,20.61
2019-04-22T17:24:11.989Z,20.59
2019-04-22T17:26:42.511Z,20.44
2019-04-22T17:29:12.776Z,20.35
2019-04-22T17:31:48.406Z,20.26
2019-04-22T17:34:15.804Z,20.20
2019-04-22T17:36:46.369Z,20.13
2019-04-22T17:39:30.232Z,20.05
2019-04-22T17:42:11.440Z,19.95
2019-04-22T17:47:23.600Z,19.76
2019-04-22T17:50:08.161Z,19.67
2019-04-22T17:52:41.012Z,19.56
2019-04-22T17:55:07.584Z,19.46
2019-04-22T17:57:38.421Z,19.39
2019-04-22T18:00:12.058Z,19.33
2019-04-22T18:02:43.026Z,19.25
2019-04-22T18:05:03.475Z,19.17
2019-04-22T18:07:55.911Z,19.12
2019-04-22T18:13:08.838Z,18.96
2019-04-22T18:15:32.060Z,18.89
2019-04-22T18:18:09.111Z,18.81
2019-04-22T18:20:29.250Z,18.75
2019-04-22T18:22:59.581Z,18.66
2019-04-22T18:25:48.482Z,18.60
2019-04-22T18:28:22.234Z,18.50
2019-04-22T18:30:41.283Z,18.44
2019-04-22T18:33:25.717Z,18.41
2019-04-22T18:35:54.049Z,18.35
2019-04-22T18:38:42.389Z,18.26
2019-04-22T18:41:02.364Z,18.20
2019-04-22T18:43:40.521Z,18.18
2019-04-22T18:46:09.535Z,18.13
2019-04-22T18:48:42.617Z,18.09
2019-04-22T18:51:18.760Z,18.04
2019-04-22T18:54:06.181Z,17.98
2019-04-22T18:56:43.526Z,17.91
2019-04-22T18:59:07.673Z,17.83
2019-04-22T19:01:28.166Z,17.78
2019-04-22T19:04:10.534Z,17.74
2019-04-22T19:07:07.466Z,17.70
2019-04-22T19:09:51.351Z,17.64
2019-04-22T19:12:21.000Z,17.61
2019-04-22T19:14:45.179Z,17.58
2019-04-22T19:17:19.035Z,17.54
2019-04-22T19:19:44.402Z,17.50
2019-04-22T19:22:17.699Z,17.26
2019-04-22T19:24:41.791Z,17.39
2019-04-22T19:27:20.168Z,17.32
2019-04-22T19:29:57.806Z,17.27
2019-04-22T19:32:25.355Z,17.21
2019-04-22T19:34:57.480Z,17.07
2019-04-22T19:37:28.331Z,17.13
2019-04-22T19:40:10.508Z,17.08
2019-04-22T19:42:43.241Z,17.04
2019-04-22T19:45:09.255Z,16.83
2019-04-22T19:47:43.580Z,16.91
2019-04-22T19:50:19.194Z,16.85
2019-04-22T19:52:44.581Z,16.83
2019-04-22T19:55:21.953Z,16.79
2019-04-22T19:57:44.919Z,16.73
2019-04-22T20:00:35.094Z,16.68
2019-04-22T20:03:33.373Z,16.66
2019-04-22T20:06:02.686Z,16.63
2019-04-22T20:08:25.119Z,16.57
2019-04-22T20:11:03.576Z,16.52
2019-04-22T20:13:36.491Z,16.47
2019-04-22T20:15:59.691Z,16.39
2019-04-22T20:18:50.215Z,16.34
2019-04-22T20:21:18.296Z,16.30
2019-04-22T20:23:43.051Z,16.23
2019-04-22T20:26:23.499Z,16.15
2019-04-22T20:28:57.652Z,16.10
2019-04-22T20:31:28.919Z,16.04
2019-04-22T20:34:13.070Z,15.99
2019-04-22T20:39:04.928Z,15.92
2019-04-22T20:41:36.479Z,15.89
2019-04-22T20:44:19.040Z,15.87
2019-04-22T20:46:44.905Z,15.83
2019-04-22T20:49:27.368Z,15.82
2019-04-22T20:54:28.494Z,15.75
2019-04-22T20:56:55.338Z,15.72
2019-04-22T20:59:31.482Z,15.70
2019-04-22T21:02:03.679Z,15.66
2019-04-22T21:04:26.102Z,15.65
2019-04-22T21:07:01.951Z,15.61
2019-04-22T21:09:39.539Z,15.61
2019-04-22T21:12:05.150Z,15.59
2019-04-22T21:14:51.422Z,15.56
2019-04-22T21:17:13.885Z,15.53
2019-04-22T21:19:54.729Z,15.51
2019-04-22T21:22:24.470Z,15.51
2019-04-22T21:24:49.461Z,15.49
2019-04-22T21:29:49.238Z,15.43
2019-04-22T21:32:31.299Z,15.41
2019-04-22T21:35:22.859Z,15.39
2019-04-22T21:37:38.641Z,15.37
2019-04-22T21:39:59.067Z,15.35
2019-04-22T21:42:46.023Z,15.31
2019-04-22T21:45:05.318Z,15.28
2019-04-22T21:47:55.416Z,15.24
2019-04-22T21:50:28.142Z,15.22
2019-04-22T21:52:50.896Z,15.22
2019-04-22T21:55:21.426Z,15.21
2019-04-22T21:58:06.968Z,15.16
2019-04-22T22:00:55.746Z,15.09
2019-04-22T22:03:19.417Z,15.13
2019-04-22T22:05:43.689Z,15.10
2019-04-22T22:08:30.134Z,15.10
2019-04-22T22:10:54.087Z,15.09
2019-04-22T22:13:27.045Z,15.09
2019-04-22T22:15:59.827Z,15.11
2019-04-22T22:18:25.315Z,15.13
2019-04-22T22:21:18.852Z,15.13
2019-04-22T22:23:38.962Z,15.11
2019-04-22T22:26:04.077Z,15.09
2019-04-22T22:28:51.421Z,15.05
2019-04-22T22:31:14.838Z,15.04
2019-04-22T22:33:43.442Z,15.02
2019-04-22T22:36:04.985Z,15.00
2019-04-22T22:38:42.610Z,14.98
2019-04-22T22:40:56.029Z,14.94
2019-04-22T22:43:33.633Z,14.93
2019-04-22T22:46:10.329Z,14.91
2019-04-22T22:48:53.692Z,14.88
2019-04-22T22:51:34.258Z,14.86
2019-04-22T22:54:01.590Z,14.84
2019-04-22T22:56:41.015Z,14.83
2019-04-22T22:59:01.762Z,14.78
2019-04-22T23:01:37.947Z,14.77
2019-04-22T23:04:12.454Z,14.75
2019-04-22T23:06:40.629Z,14.72
2019-04-22T23:09:09.806Z,14.69
2019-04-22T23:12:00.574Z,14.67
2019-04-22T23:14:14.507Z,14.62
2019-04-22T23:16:35.440Z,14.61
2019-04-22T23:19:02.238Z,14.57
2019-04-22T23:21:41.556Z,14.55
2019-04-22T23:24:43.981Z,14.51
2019-04-22T23:27:17.109Z,14.50
2019-04-22T23:30:06.673Z,14.47
2019-04-22T23:32:38.850Z,14.41
2019-04-22T23:35:22.545Z,14.38
2019-04-22T23:37:57.100Z,14.35
2019-04-22T23:40:35.865Z,14.34
2019-04-22T23:43:09.660Z,14.30
2019-04-22T23:45:43.350Z,14.28
2019-04-22T23:48:06.814Z,14.26
2019-04-22T23:50:45.921Z,14.24
2019-04-22T23:53:55.672Z,14.20
2019-04-22T23:56:13.590Z,14.17
2019-04-22T23:58:52.629Z,14.12
